Time;durP1;ratioP1;P1;durP2;ratioP2;P2;SDS_P1;SDS_P2;PMS_P1;PMS_P2;Temp;Humidity;BMP_temperature;BMP_pressure;BME280_temperature;BME280_humidity;BME280_pressure;Samples;Min_cycle;Max_cycle;Signal;HPM_P1;HPM_P2
2023/04/23 00:00:26;;;;;;;11.95;7.80;;;;;;;9.73;100.00;100652.28;5132565;27;20043;-73
2023/04/23 00:02:53;;;;;;;14.05;7.70;;;;;;;9.96;100.00;100684.13;5110379;28;20054;-74
2023/04/23 00:05:19;;;;;;;18.00;8.32;;;;;;;9.56;100.00;100644.91;5110648;28;20456;-75
2023/04/23 00:07:45;;;;;;;11.48;7.55;;;;;;;9.73;100.00;100652.28;5110685;28;20028;-74
2023/04/23 00:10:11;;;;;;;14.02;7.82;;;;;;;9.96;100.00;100679.06;5111751;28;20092;-75
2023/04/23 00:12:37;;;;;;;12.70;7.55;;;;;;;9.19;100.00;100581.09;5112517;28;20059;-75
2023/04/23 00:15:09;;;;;;;14.88;8.30;;;;;;;9.79;100.00;100683.50;5110165;28;20074;-75
2023/04/23 00:17:36;;;;;;;15.43;8.55;;;;;;;9.68;100.00;100647.28;5112276;28;20466;-74
2023/04/23 00:20:02;;;;;;;19.15;9.60;;;;;;;9.68;100.00;100689.59;5111452;28;20040;-74
2023/04/23 00:22:27;;;;;;;13.95;9.50;;;;;;;9.32;100.00;100668.91;5110406;28;20035;-73
2023/04/23 00:24:53;;;;;;;13.75;8.45;;;;;;;9.39;100.00;100634.97;5111821;28;20086;-74
2023/04/23 00:27:20;;;;;;;16.70;7.75;;;;;;;9.67;100.00;100692.97;5112061;28;20031;-74
2023/04/23 00:29:45;;;;;;;15.95;7.78;;;;;;;9.21;100.00;100629.28;5110423;28;20233;-74
2023/04/23 00:32:35;;;;;;;15.70;7.30;;;;;;;9.35;100.00;100688.28;5112296;28;20133;-74
2023/04/23 00:35:00;;;;;;;14.02;6.80;;;;;;;8.89;100.00;100634.72;5110900;28;20035;-74
2023/04/23 00:37:25;;;;;;;14.48;7.63;;;;;;;9.30;100.00;100695.13;5110713;28;20761;-73
2023/04/23 00:39:51;;;;;;;9.98;6.47;;;;;;;9.53;100.00;100729.53;5111410;28;20134;-74
2023/04/23 00:42:16;;;;;;;8.95;6.15;;;;;;;8.73;100.00;100616.28;5110426;28;20466;-75
2023/04/23 00:44:42;;;;;;;11.35;6.35;;;;;;;9.27;100.00;100667.28;5111541;28;20034;-74
2023/04/23 00:47:08;;;;;;;11.88;6.20;;;;;;;9.48;100.00;100733.00;5110584;28;20032;-73
2023/04/23 00:49:35;;;;;;;13.75;6.60;;;;;;;9.45;100.00;100730.47;5110575;28;20028;-75
2023/04/23 00:52:00;;;;;;;10.68;5.80;;;;;;;9.41;100.00;100693.31;5111534;28;20030;-74
2023/04/23 00:54:26;;;;;;;12.32;6.35;;;;;;;9.37;100.00;100701.81;5109695;28;20031;-74
2023/04/23 00:56:53;;;;;;;10.43;6.35;;;;;;;9.09;100.00;100652.25;5109969;28;20024;-75
2023/04/23 00:59:19;;;;;;;11.90;6.38;;;;;;;9.17;100.00;100698.69;5110108;28;20406;-75
2023/04/23 01:01:45;;;;;;;13.85;6.28;;;;;;;9.15;100.00;100693.59;5113667;28;20055;-75
2023/04/23 01:04:16;;;;;;;8.57;5.85;;;;;;;9.53;100.00;100705.84;5113059;28;20028;-75
2023/04/23 01:06:42;;;;;;;9.80;6.00;;;;;;;9.21;100.00;100715.53;5113596;28;20019;-75
2023/04/23 01:09:09;;;;;;;9.27;6.25;;;;;;;8.91;100.00;100660.06;5131984;28;20113;-75
2023/04/23 01:11:42;;;;;;;9.98;6.22;;;;;;;9.44;100.00;100744.03;5131592;28;20031;-74
2023/04/23 01:14:08;;;;;;;10.68;6.25;;;;;;;9.66;100.00;100765.78;5132473;28;20089;-75
2023/04/23 01:16:36;;;;;;;14.00;7.15;;;;;;;9.25;100.00;100699.44;5114068;27;20035;-75
2023/04/23 01:19:01;;;;;;;13.88;8.15;;;;;;;9.57;100.00;100776.88;5136014;27;20488;-75
2023/04/23 01:21:28;;;;;;;14.85;8.68;;;;;;;9.33;100.00;100763.63;5135711;27;20042;-75
2023/04/23 01:23:54;;;;;;;18.55;10.70;;;;;;;9.38;100.00;100734.81;5109349;28;20035;-74
2023/04/23 01:26:20;;;;;;;16.52;7.75;;;;;;;9.27;100.00;100740.84;5109256;27;20039;-74
2023/04/23 01:28:46;;;;;;;13.15;7.40;;;;;;;9.13;100.00;100778.19;5117622;27;20023;-75
2023/04/23 01:31:13;;;;;;;11.70;6.90;;;;;;;9.20;100.00;100744.28;5150984;27;20488;-74
2023/04/23 01:33:40;;;;;;;10.73;7.07;;;;;;;9.30;100.00;100778.84;5137989;27;20026;-75
2023/04/23 01:36:06;;;;;;;15.50;7.55;;;;;;;9.19;100.00;100778.94;5156527;27;20075;-74
2023/04/23 01:38:32;;;;;;;15.85;8.35;;;;;;;9.14;100.00;100795.06;5155567;27;20038;-76
2023/04/23 01:40:58;;;;;;;13.50;7.93;;;;;;;9.24;100.00;100806.81;5155949;27;20049;-74
2023/04/23 01:43:24;;;;;;;12.77;7.28;;;;;;;8.69;100.00;100731.22;5137324;27;20027;-74
2023/04/23 01:45:50;;;;;;;12.05;6.60;;;;;;;8.84;100.00;100757.31;5155756;27;20087;-74
2023/04/23 01:48:16;;;;;;;13.82;8.45;;;;;;;8.66;100.00;100695.78;5155407;27;20026;-74
2023/04/23 01:50:41;;;;;;;10.23;7.32;;;;;;;8.79;100.00;100731.16;5137263;27;20092;-75
2023/04/23 01:53:07;;;;;;;11.05;7.72;;;;;;;8.97;100.00;100776.66;5137210;27;20039;-75
2023/04/23 01:55:33;;;;;;;18.42;10.90;;;;;;;8.89;100.00;100779.25;5137034;27;20031;-75
2023/04/23 01:57:58;;;;;;;17.85;9.63;;;;;;;8.41;100.00;100728.94;5155752;27;20030;-74
2023/04/23 02:00:24;;;;;;;12.13;9.85;;;;;;;8.37;100.00;100712.91;5137187;27;20121;-74
2023/04/23 02:02:52;;;;;;;21.55;14.13;;;;;;;8.37;100.00;100710.38;5155981;27;20042;-75
2023/04/23 02:05:19;;;;;;;20.63;11.63;;;;;;;8.55;100.00;100715.31;5137808;27;20023;-76
2023/04/23 02:07:47;;;;;;;16.45;8.60;;;;;;;8.73;100.00;100773.44;5155931;27;20057;-75
2023/04/23 02:10:12;;;;;;;13.65;8.13;;;;;;;8.01;100.00;100666.69;5136933;27;20137;-75
2023/04/23 02:12:39;;;;;;;12.40;8.05;;;;;;;8.32;100.00;100712.09;5137643;27;20057;-74
2023/04/23 02:15:06;;;;;;;15.45;9.45;;;;;;;7.99;100.00;100708.91;5136936;27;20563;-75
2023/04/23 02:17:32;;;;;;;15.38;9.07;;;;;;;8.01;100.00;100733.38;5137134;27;20451;-75
2023/04/23 02:19:57;;;;;;;11.68;7.60;;;;;;;7.97;100.00;100719.03;5137406;27;20034;-75
2023/04/23 02:22:24;;;;;;;12.27;7.70;;;;;;;8.12;100.00;100761.16;5136674;27;20027;-74
2023/04/23 02:24:50;;;;;;;12.60;7.30;;;;;;;7.91;100.00;100721.59;5131684;27;20114;-75
2023/04/23 02:27:16;;;;;;;12.02;8.32;;;;;;;8.26;100.00;100784.75;5134527;27;20055;-75
2023/04/23 02:29:41;;;;;;;20.17;8.85;;;;;;;8.14;100.00;100774.66;5131923;27;20118;-76
2023/04/23 02:32:07;;;;;;;17.67;8.75;;;;;;;8.07;100.00;100756.13;5134639;27;20023;-75
2023/04/23 02:34:32;;;;;;;15.18;8.35;;;;;;;7.88;100.00;100752.00;5133136;27;20095;-76
2023/04/23 02:36:58;;;;;;;15.07;8.18;;;;;;;8.19;100.00;100778.00;5134559;27;20478;-74
2023/04/23 02:39:23;;;;;;;10.88;8.20;;;;;;;7.91;100.00;100754.50;5134024;27;20084;-76
2023/04/23 02:41:49;;;;;;;13.73;7.10;;;;;;;8.09;100.00;100763.69;5134147;27;20118;-75
2023/04/23 02:44:15;;;;;;;11.32;7.68;;;;;;;7.66;100.00;100651.72;5145877;27;20057;-75
2023/04/23 02:46:40;;;;;;;14.55;8.48;;;;;;;7.85;100.00;100616.19;5115738;27;20027;-75
2023/04/23 02:49:06;;;;;;;15.73;7.55;;;;;;;8.20;100.00;100696.94;5134638;27;20080;-74
2023/04/23 02:51:31;;;;;;;12.77;8.35;;;;;;;8.16;100.00;100691.94;5115752;27;20077;-76
2023/04/23 02:53:57;;;;;;;12.95;8.38;;;;;;;8.35;100.00;100678.31;5116072;27;20473;-75
2023/04/23 02:56:23;;;;;;;12.85;8.93;;;;;;;8.10;100.00;100676.78;5115726;27;20576;-77
2023/04/23 02:58:48;;;;;;;13.15;10.82;;;;;;;7.77;100.00;100644.91;5134314;27;20047;-75
2023/04/23 03:01:14;;;;;;;16.13;10.35;;;;;;;8.05;100.00;100668.34;5134296;27;20524;-76
2023/04/23 03:03:40;;;;;;;12.30;9.55;;;;;;;8.33;100.00;100682.53;5134842;27;20048;-75
2023/04/23 03:06:07;;;;;;;13.52;9.40;;;;;;;7.73;100.00;100613.72;5115158;27;20047;-74
2023/04/23 03:08:32;;;;;;;12.73;9.48;;;;;;;7.99;100.00;100627.88;5133825;27;20031;-76
2023/04/23 03:10:58;;;;;;;15.75;8.70;;;;;;;8.30;100.00;100658.06;5132607;27;20037;-75
2023/04/23 03:13:24;;;;;;;11.45;7.85;;;;;;;8.25;100.00;100669.94;5106701;27;20512;-75
2023/04/23 03:15:50;;;;;;;14.95;8.10;;;;;;;8.47;100.00;100684.13;5128652;27;20036;-76
2023/04/23 03:18:16;;;;;;;10.52;7.50;;;;;;;7.76;100.00;100565.59;5112608;28;20118;-75
2023/04/23 03:20:41;;;;;;;10.98;6.72;;;;;;;8.32;100.00;100666.50;5094549;28;20463;-74
2023/04/23 03:23:07;;;;;;;12.23;7.05;;;;;;;8.34;100.00;100662.25;5112358;28;20028;-76
2023/04/23 03:25:33;;;;;;;10.68;7.10;;;;;;;8.11;100.00;100655.66;5125168;27;20035;-75
2023/04/23 03:27:59;;;;;;;10.13;7.15;;;;;;;8.19;100.00;100626.06;5122438;27;20027;-74
2023/04/23 03:30:25;;;;;;;12.52;8.30;;;;;;;8.18;100.00;100632.81;5107689;28;20517;-72
2023/04/23 03:32:50;;;;;;;14.00;9.27;;;;;;;8.34;100.00;100641.19;5094707;28;20114;-79
2023/04/23 03:35:16;;;;;;;32.63;23.50;;;;;;;8.10;100.00;100629.47;5112489;28;20255;-78
2023/04/23 03:37:41;;;;;;;27.50;16.30;;;;;;;7.29;100.00;100516.22;5121619;27;20597;-79
2023/04/23 03:40:08;;;;;;;27.58;20.48;;;;;;;7.71;100.00;100558.91;5114670;27;20030;-79
2023/04/23 03:42:33;;;;;;;20.52;13.98;;;;;;;7.82;100.00;100567.28;5132477;27;20030;-76
2023/04/23 03:45:00;;;;;;;22.48;14.48;;;;;;;8.08;100.00;100610.94;5133345;27;20481;-78
2023/04/23 03:47:25;;;;;;;25.35;17.83;;;;;;;8.15;100.00;100574.59;5114953;27;20080;-77
2023/04/23 03:49:52;;;;;;;29.55;20.92;;;;;;;8.04;100.00;100590.72;5153430;27;20023;-74
2023/04/23 03:52:17;;;;;;;25.05;12.98;;;;;;;8.08;100.00;100580.53;5135391;27;20042;-78
2023/04/23 03:54:43;;;;;;;30.42;18.35;;;;;;;8.01;100.00;100558.69;5153793;27;20501;-76
2023/04/23 03:57:08;;;;;;;33.08;21.30;;;;;;;8.03;100.00;100559.50;5153222;27;20555;-77
2023/04/23 03:59:34;;;;;;;31.27;18.70;;;;;;;7.55;100.00;100483.97;5153456;27;20029;-80
2023/04/23 04:02:02;;;;;;;23.85;14.45;;;;;;;7.77;100.00;100511.63;5118587;27;20047;-79
2023/04/23 04:04:28;;;;;;;21.88;13.10;;;;;;;7.84;100.00;100525.91;5112207;28;20031;-77
2023/04/23 04:06:56;;;;;;;19.42;12.73;;;;;;;7.71;100.00;100536.13;5114831;27;20121;-77
2023/04/23 04:09:21;;;;;;;18.65;12.38;;;;;;;7.64;100.00;100524.38;5112900;28;20138;-76
2023/04/23 04:11:47;;;;;;;19.40;11.88;;;;;;;7.91;100.00;100531.75;5132591;27;20537;-77
2023/04/23 04:14:12;;;;;;;15.80;10.70;;;;;;;7.77;100.00;100521.75;5114181;27;20126;-77
2023/04/23 04:16:38;;;;;;;14.85;11.43;;;;;;;7.81;100.00;100527.63;5114218;28;20066;-77
2023/04/23 04:19:03;;;;;;;19.33;10.88;;;;;;;8.00;100.00;100536.75;5132463;27;20500;-77
2023/04/23 04:21:29;;;;;;;16.45;11.90;;;;;;;8.07;100.00;100538.38;5131899;27;20039;-78
2023/04/23 04:23:54;;;;;;;16.25;11.60;;;;;;;8.32;100.00;100541.56;5111203;28;20114;-76
2023/04/23 04:26:20;;;;;;;23.25;12.50;;;;;;;8.14;100.00;100526.50;5110457;28;20043;-78
2023/04/23 04:28:45;;;;;;;20.83;11.13;;;;;;;9.27;100.00;100581.03;5110051;28;20039;-78
2023/04/23 04:31:14;;;;;;;22.10;12.05;;;;;;;11.17;100.00;100582.88;5136419;27;20050;-78
2023/04/23 04:33:40;;;;;;;25.70;15.93;;;;;;;8.66;100.00;100505.69;5110319;28;20051;-81
2023/04/23 04:36:08;;;;;;;25.38;15.32;;;;;;;8.56;100.00;100498.22;5093688;28;20027;-82
2023/04/23 04:38:36;;;;;;;19.48;13.18;;;;;;;9.24;100.00;100540.47;5094230;28;20470;-77
2023/04/23 04:41:04;;;;;;;24.30;14.52;;;;;;;8.84;100.00;100475.91;5099759;28;20027;-76
2023/04/23 04:43:31;;;;;;;28.27;17.70;;;;;;;9.27;100.00;100542.97;5118953;27;20026;-76
2023/04/23 04:45:57;;;;;;;29.80;18.42;;;;;;;9.02;100.00;100508.63;5134947;27;20023;-80
2023/04/23 04:48:24;;;;;;;31.50;17.65;;;;;;;9.49;100.00;100549.41;5134496;27;20476;-81
2023/04/23 04:50:49;;;;;;;33.65;22.30;;;;;;;9.58;100.00;100567.88;5138687;27;20054;-77
2023/04/23 04:53:15;;;;;;;25.88;18.38;;;;;;;9.44;100.00;100554.56;5113906;28;20406;-78
2023/04/23 04:55:41;;;;;;;12.90;7.93;;;;;;;8.81;100.00;100488.63;5095691;28;20028;-77
2023/04/23 04:58:06;;;;;;;49.00;27.15;;;;;;;9.76;100.00;100573.53;5114545;28;20057;-77
2023/04/23 05:00:32;;;;;;;31.35;15.63;;;;;;;10.16;100.00;100585.59;5097768;28;20035;-78
2023/04/23 05:02:58;;;;;;;17.52;10.68;;;;;;;9.80;100.00;100529.47;5096850;28;20047;-78
2023/04/23 05:05:31;;;;;;;17.50;11.23;;;;;;;10.08;100.00;100535.78;5115733;28;20034;-77
2023/04/23 05:08:01;;;;;;;18.40;10.82;;;;;;;10.01;100.00;100501.19;5115403;28;20039;-77
2023/04/23 05:10:27;;;;;;;17.65;11.63;;;;;;;11.00;100.00;100616.28;5114957;28;20032;-77
2023/04/23 05:12:54;;;;;;;14.77;10.35;;;;;;;11.08;100.00;100624.63;5115118;28;20051;-77
2023/04/23 05:15:20;;;;;;;11.85;9.02;;;;;;;11.37;100.00;100623.19;5115326;28;20077;-78
2023/04/23 05:17:46;;;;;;;14.00;8.68;;;;;;;11.42;100.00;100634.09;5115018;28;20557;-78
2023/04/23 05:20:11;;;;;;;14.18;10.07;;;;;;;11.64;100.00;100637.88;5115880;28;20062;-78
2023/04/23 05:22:38;;;;;;;11.80;8.23;;;;;;;11.70;100.00;100642.88;5115747;28;20054;-77
2023/04/23 05:25:04;;;;;;;16.25;9.13;;;;;;;12.07;100.00;100653.91;5115648;28;20031;-78
2023/04/23 05:27:31;;;;;;;14.95;8.35;;;;;;;12.04;100.00;100656.53;5097223;28;20035;-79
2023/04/23 05:29:56;;;;;;;13.90;9.10;;;;;;;11.23;100.00;100578.50;5131626;27;20038;-78
2023/04/23 05:32:22;;;;;;;11.18;8.50;;;;;;;12.15;100.00;100657.97;5115619;28;20406;-77
2023/04/23 05:34:47;;;;;;;16.50;12.45;;;;;;;11.89;100.00;100644.13;5131641;27;20085;-77
2023/04/23 05:37:13;;;;;;;13.45;9.35;;;;;;;12.26;100.00;100619.44;5114540;28;20470;-78
2023/04/23 05:39:38;;;;;;;17.50;9.95;;;;;;;12.12;100.00;100596.03;5096891;28;20031;-77
2023/04/23 05:42:03;;;;;;;14.00;8.63;;;;;;;12.60;100.00;100647.50;5097032;28;20031;-78
2023/04/23 05:44:29;;;;;;;11.73;7.90;;;;;;;12.00;100.00;100583.59;5115415;28;20016;-78
2023/04/23 05:46:56;;;;;;;11.23;8.25;;;;;;;12.77;100.00;100653.03;5115261;28;20118;-78
2023/04/23 05:49:22;;;;;;;16.77;8.63;;;;;;;13.32;100.00;100663.44;5114721;28;20024;-77
2023/04/23 05:51:47;;;;;;;15.90;9.32;;;;;;;12.95;100.00;100601.50;5096472;28;20459;-78
2023/04/23 05:54:12;;;;;;;27.17;16.20;;;;;;;13.20;100.00;100643.34;5131313;27;20028;-78
2023/04/23 05:56:38;;;;;;;14.45;9.70;;;;;;;12.93;100.00;100577.72;5114638;28;20115;-77
2023/04/23 05:59:03;;;;;;;18.08;10.68;;;;;;;13.64;100.00;100593.53;5130656;27;20028;-77
2023/04/23 06:01:29;;;;;;;13.43;10.13;;;;;;;13.41;100.00;100619.75;5113578;28;20534;-77
2023/04/23 06:03:54;;;;;;;17.63;10.40;;;;;;;14.05;100.00;100628.84;5095890;28;20100;-77
2023/04/23 06:06:19;;;;;;;20.05;11.40;;;;;;;14.16;100.00;100623.41;5114417;28;20031;-78
2023/04/23 06:08:45;;;;;;;16.83;11.82;;;;;;;14.15;100.00;100563.75;5096389;28;20028;-77
2023/04/23 06:11:10;;;;;;;14.98;10.48;;;;;;;13.87;100.00;100540.81;5096625;28;20066;-77
2023/04/23 06:13:39;;;;;;;14.13;10.05;;;;;;;14.67;100.00;100614.03;5096257;28;20493;-76
2023/04/23 06:16:07;;;;;;;16.83;10.57;;;;;;;15.01;100.00;100599.16;5114721;28;20067;-77
2023/04/23 06:18:32;;;;;;;13.23;10.60;;;;;;;15.04;100.00;100601.59;5096594;28;20027;-77
2023/04/23 06:21:03;;;;;;;14.95;9.90;;;;;;;14.11;100.00;100505.94;5114009;28;20068;-77
2023/04/23 06:23:28;;;;;;;15.20;9.85;;;;;;;14.00;100.00;100543.81;5130714;27;20520;-76
2023/04/23 06:25:54;;;;;;;15.23;10.48;;;;;;;14.88;100.00;100567.19;5130184;27;20031;-76
2023/04/23 06:28:19;;;;;;;23.27;18.15;;;;;;;15.01;100.00;100559.91;5096682;28;20444;-77
2023/04/23 06:30:45;;;;;;;13.38;8.63;;;;;;;14.29;100.00;100474.63;5096061;28;20036;-76
2023/04/23 06:33:11;;;;;;;12.98;9.60;;;;;;;15.60;100.00;100553.38;5096325;28;20061;-76
2023/04/23 06:35:36;;;;;;;13.50;9.25;;;;;;;15.84;100.00;100546.44;5114409;28;20023;-76
2023/04/23 06:38:02;;;;;;;14.65;9.80;;;;;;;16.06;100.00;100529.28;5114217;28;20049;-77
2023/04/23 06:40:27;;;;;;;14.23;9.50;;;;;;;15.38;100.00;100479.03;5129852;27;20116;-79
2023/04/23 06:42:53;;;;;;;12.57;9.18;;;;;;;15.55;100.00;100486.91;5114241;28;20032;-77
2023/04/23 06:45:18;;;;;;;10.25;6.95;;;;;;;15.55;100.00;100460.44;5095370;28;20456;-77
2023/04/23 06:47:44;;;;;;;13.05;6.60;;;;;;;16.35;100.00;100444.19;5113518;28;20485;-76
2023/04/23 06:50:10;;;;;;;15.00;6.38;;;;;;;15.36;100.00;100341.63;5129646;27;20047;-77
2023/04/23 06:52:35;;;;;;;12.95;6.35;;;;;;;16.35;100.00;100392.88;5129933;27;20032;-77
2023/04/23 06:55:01;;;;;;;10.77;7.25;;;;;;;16.91;100.00;100378.28;5095736;28;20035;-76
2023/04/23 06:57:27;;;;;;;14.18;6.47;;;;;;;16.77;100.00;100307.94;5113592;28;20031;-76
2023/04/23 06:59:52;;;;;;;14.88;6.97;;;;;;;16.46;100.00;100177.59;5094747;28;20210;-77
2023/04/23 07:02:18;;;;;;;9.85;5.63;;;;;;;15.74;100.00;100091.38;5089384;28;20544;-77
2023/04/23 07:04:43;;;;;;;12.38;6.30;;;;;;;17.00;100.00;100097.81;5093612;28;20131;-77
2023/04/23 07:07:09;;;;;;;10.27;5.75;;;;;;;16.98;100.00;100150.19;5092152;28;20040;-77
2023/04/23 07:09:34;;;;;;;15.95;6.30;;;;;;;16.57;100.00;100148.88;5092595;28;20055;-77
2023/04/23 07:12:01;;;;;;;11.27;5.75;;;;;;;17.67;100.00;100277.66;5091573;28;20510;-77
2023/04/23 07:14:26;;;;;;;9.65;5.55;;;;;;;17.33;100.00;100335.06;5092845;28;20024;-77
2023/04/23 07:16:53;;;;;;;12.18;5.07;;;;;;;17.06;100.00;100402.41;5092223;28;20047;-77
2023/04/23 07:19:19;;;;;;;10.88;4.88;;;;;;;17.68;100.00;100468.81;5092074;28;20031;-76
2023/04/23 07:21:44;;;;;;;11.38;5.03;;;;;;;17.76;100.00;100482.97;5108465;28;20031;-78
2023/04/23 07:24:10;;;;;;;14.93;4.72;;;;;;;17.88;100.00;100584.44;5112902;28;20063;-78
2023/04/23 07:26:35;;;;;;;9.35;4.30;;;;;;;17.92;100.00;100616.81;5113008;28;20034;-76
2023/04/23 07:29:03;;;;;;;9.27;4.70;;;;;;;18.06;100.00;100741.34;5144108;27;20520;-78
2023/04/23 07:31:28;;;;;;;9.48;4.50;;;;;;;18.29;100.00;100775.50;5111583;28;20053;-76
2023/04/23 07:33:55;;;;;;;10.35;4.30;;;;;;;17.06;100.00;100829.78;5112884;28;20042;-76
2023/04/23 07:36:21;;;;;;;10.15;4.30;;;;;;;17.50;100.00;100819.41;5113160;28;20035;-78
2023/04/23 07:38:46;;;;;;;6.55;4.00;;;;;;;18.78;100.00;100948.34;5111786;28;20019;-76
2023/04/23 07:41:12;;;;;;;8.25;4.60;;;;;;;17.98;100.00;100969.09;5112720;28;20527;-76
2023/04/23 07:43:39;;;;;;;8.95;4.22;;;;;;;18.34;100.00;100980.38;5111643;28;20035;-77
2023/04/23 07:46:06;;;;;;;8.38;3.90;;;;;;;17.89;100.00;100943.72;5111584;28;20027;-77
2023/04/23 07:48:32;;;;;;;6.82;3.95;;;;;;;18.19;100.00;100896.91;5111275;28;20031;-76
2023/04/23 07:50:58;;;;;;;8.77;4.00;;;;;;;18.61;100.00;100912.22;5111203;28;20031;-77
2023/04/23 07:53:23;;;;;;;9.38;3.83;;;;;;;18.38;100.00;100912.38;5111316;28;20079;-79
2023/04/23 07:55:49;;;;;;;7.93;4.45;;;;;;;18.89;100.00;100893.72;5110950;28;20028;-77
2023/04/23 07:58:14;;;;;;;6.82;4.07;;;;;;;18.20;100.00;100932.06;5110840;28;20513;-78
2023/04/23 08:00:40;;;;;;;11.73;4.47;;;;;;;19.34;100.00;100999.84;5145388;27;20172;-77
2023/04/23 08:03:05;;;;;;;12.40;4.90;;;;;;;19.02;100.00;100978.13;5110757;28;20036;-77
2023/04/23 08:05:31;;;;;;;9.70;4.40;;;;;;;19.03;100.00;100856.03;5111761;28;20044;-77
2023/04/23 08:07:57;;;;;;;12.00;3.90;;;;;;;18.43;100.00;100842.66;5111547;28;20122;-77
2023/04/23 08:10:22;;;;;;;8.48;4.18;;;;;;;18.82;100.00;100787.50;5112297;28;20032;-76
2023/04/23 08:12:48;;;;;;;12.02;4.40;;;;;;;19.96;100.00;100818.66;5111512;28;20103;-77
2023/04/23 08:15:13;;;;;;;13.07;4.20;;;;;;;18.95;100.00;100819.53;5110970;28;20062;-76
2023/04/23 08:17:39;;;;;;;7.63;3.78;;;;;;;19.31;100.00;100844.41;5110453;28;20055;-76
2023/04/23 08:20:08;;;;;;;9.68;4.10;;;;;;;19.35;100.00;100871.72;5111935;28;20106;-77
2023/04/23 08:22:33;;;;;;;10.63;3.88;;;;;;;19.78;100.00;100882.41;5110994;28;20047;-76
2023/04/23 08:24:59;;;;;;;8.05;3.92;;;;;;;20.11;100.00;100871.19;5111614;28;20164;-78
2023/04/23 08:27:24;;;;;;;10.38;4.20;;;;;;;18.93;100.00;100913.28;5110009;28;20118;-78
2023/04/23 08:29:50;;;;;;;8.45;3.65;;;;;;;19.16;100.00;100905.28;5145244;27;20387;-77
2023/04/23 08:32:16;;;;;;;11.25;4.15;;;;;;;19.14;100.00;100904.53;5145661;27;20092;-78
2023/04/23 08:34:41;;;;;;;8.90;4.05;;;;;;;18.69;100.00;100871.47;5145571;27;20037;-78
2023/04/23 08:37:06;;;;;;;8.38;3.80;;;;;;;19.01;100.00;100826.94;5144910;27;20039;-78
2023/04/23 08:39:33;;;;;;;9.00;3.83;;;;;;;19.57;100.00;100890.41;5111294;28;20189;-76
2023/04/23 08:42:09;;;;;;;8.85;3.72;;;;;;;18.30;100.00;100864.72;5112452;28;20032;-77
2023/04/23 08:44:40;;;;;;;14.30;3.92;;;;;;;18.68;100.00;100826.00;5111173;28;20473;-77
2023/04/23 08:47:09;;;;;;;8.32;3.75;;;;;;;19.13;100.00;100858.19;5145469;27;20023;-77
2023/04/23 08:49:36;;;;;;;13.82;3.85;;;;;;;18.98;100.00;100839.13;5145668;27;20413;-76
2023/04/23 08:52:22;;;;;;;7.88;3.90;;;;;;;19.30;100.00;100856.44;5144642;27;20054;-77
2023/04/23 08:54:51;;;;;;;8.90;4.25;;;;;;;19.74;100.00;100919.59;5110816;28;20023;-78
2023/04/23 08:57:17;;;;;;;7.18;3.83;;;;;;;19.82;100.00;100901.13;5110890;28;20111;-78
2023/04/23 08:59:43;;;;;;;10.45;4.10;;;;;;;20.01;100.00;100922.50;5110471;28;20031;-78
2023/04/23 09:02:09;;;;;;;11.07;4.47;;;;;;;19.11;100.00;100839.38;5116245;28;20055;-77
2023/04/23 09:04:35;;;;;;;8.95;4.07;;;;;;;19.09;100.00;100898.75;5114237;28;20027;-77
2023/04/23 09:07:01;;;;;;;12.55;3.80;;;;;;;18.98;100.00;100876.06;5114148;28;20034;-76
2023/04/23 09:09:28;;;;;;;8.65;4.15;;;;;;;20.51;100.00;100927.63;5132252;28;20393;-77
2023/04/23 09:11:57;;;;;;;13.43;4.20;;;;;;;20.12;100.00;100934.88;5132756;28;20026;-77
2023/04/23 09:14:24;;;;;;;10.80;4.55;;;;;;;19.87;100.00;100912.03;5132331;28;20059;-77
2023/04/23 09:16:50;;;;;;;8.95;4.32;;;;;;;20.50;100.00;100964.72;5113907;28;20431;-77
2023/04/23 09:19:16;;;;;;;9.20;4.40;;;;;;;20.39;100.00;101151.31;5113371;28;20035;-76
2023/04/23 09:21:43;;;;;;;9.23;3.90;;;;;;;19.15;100.00;101256.88;5132682;28;20109;-79
2023/04/23 09:24:13;;;;;;;7.85;3.97;;;;;;;19.64;100.00;101535.19;5132281;28;20106;-77
2023/04/23 09:26:47;;;;;;;7.90;3.63;;;;;;;20.97;100.00;102217.47;5133112;28;20122;-77
2023/04/23 09:29:18;;;;;;;13.98;4.70;;;;;;;19.67;100.00;103369.78;5113935;28;20031;-78
2023/04/23 09:31:49;;;;;;;8.77;3.67;;;;;;;19.09;100.00;103657.59;5128805;28;20027;-77
2023/04/23 09:34:18;;;;;;;8.98;4.00;;;;;;;20.10;100.00;103453.69;5114052;28;20552;-77
2023/04/23 09:36:45;;;;;;;8.00;3.50;;;;;;;19.95;100.00;103291.09;5113877;28;20027;-77
2023/04/23 09:39:12;;;;;;;7.68;3.90;;;;;;;18.57;100.00;102682.56;5134114;27;20027;-76
2023/04/23 09:41:38;;;;;;;6.78;3.60;;;;;;;18.13;100.00;102424.00;5136058;27;20067;-75
2023/04/23 09:44:03;;;;;;;8.98;4.07;;;;;;;19.83;100.00;102271.97;5118751;27;20557;-76
2023/04/23 09:46:42;;;;;;;11.32;4.70;;;;;;;20.29;100.00;101772.75;5096770;28;20027;-76
2023/04/23 09:49:09;;;;;;;9.95;6.18;;;;;;;19.51;100.00;101381.72;5115144;28;20028;-76
2023/04/23 09:51:39;;;;;;;9.80;4.03;;;;;;;20.84;100.00;101212.78;5097162;28;20417;-79
2023/04/23 09:54:12;;;;;;;7.55;4.50;;;;;;;21.71;100.00;100652.44;5114750;28;20039;-78
2023/04/23 09:56:38;;;;;;;10.48;4.68;;;;;;;20.71;100.00;100338.06;5096677;28;20035;-80
2023/04/23 09:59:28;;;;;;;8.10;4.53;;;;;;;21.45;100.00;100717.00;5114480;28;20032;-79
2023/04/23 10:01:54;;;;;;;9.32;4.07;;;;;;;20.58;100.00;100794.59;5111401;28;20114;-79
2023/04/23 10:04:23;;;;;;;8.60;4.38;;;;;;;20.72;100.00;100818.72;5130661;27;20028;-79
2023/04/23 10:06:56;;;;;;;11.63;4.75;;;;;;;21.21;100.00;100935.81;5115058;28;20032;-79
2023/04/23 10:09:23;;;;;;;16.70;8.02;;;;;;;20.55;100.00;100992.00;5130352;27;20031;-79
2023/04/23 10:11:53;;;;;;;9.35;4.18;;;;;;;21.98;100.00;101072.91;5114829;28;20027;-80
2023/04/23 10:14:20;;;;;;;10.38;4.30;;;;;;;20.46;100.00;101100.19;5115201;28;20442;-79
2023/04/23 10:16:46;;;;;;;10.27;4.20;;;;;;;20.31;100.00;101158.59;5114614;28;20023;-80
2023/04/23 10:19:18;;;;;;;8.93;3.90;;;;;;;20.58;100.00;101187.44;5096762;28;20042;-80
2023/04/23 10:21:45;;;;;;;7.60;4.30;;;;;;;19.46;100.00;101186.75;5114237;28;20039;-79
2023/04/23 10:24:13;;;;;;;8.45;3.30;;;;;;;20.60;100.00;101276.88;5095768;28;20110;-79
2023/04/23 10:26:41;;;;;;;7.20;4.10;;;;;;;21.30;100.00;101445.03;5096680;28;20387;-80
2023/04/23 10:29:13;;;;;;;9.80;3.80;;;;;;;20.09;100.00;101491.09;5095921;28;20176;-78
2023/04/23 10:31:39;;;;;;;7.75;3.72;;;;;;;20.68;100.00;101509.16;5114129;28;20122;-78
2023/04/23 10:34:06;;;;;;;9.45;3.65;;;;;;;20.85;100.00;101597.19;5114231;28;20039;-78
2023/04/23 10:36:38;;;;;;;10.30;4.00;;;;;;;21.74;100.00;101655.19;5095971;28;20027;-79
2023/04/23 10:39:07;;;;;;;4.50;3.30;;;;;;;20.58;100.00;101568.19;5091031;28;20419;-79
2023/04/23 10:41:38;;;;;;;6.13;3.72;;;;;;;20.42;100.00;101607.72;5114667;28;20028;-79
2023/04/23 10:44:04;;;;;;;9.88;4.30;;;;;;;21.39;100.00;101612.81;5113894;28;20074;-78
2023/04/23 10:46:31;;;;;;;10.05;4.50;;;;;;;21.34;100.00;101595.81;5095844;28;20119;-77
2023/04/23 10:49:14;;;;;;;11.45;3.80;;;;;;;21.20;100.00;101549.03;5095465;28;20031;-78
2023/04/23 10:51:42;;;;;;;7.30;4.10;;;;;;;20.67;100.00;101591.09;5112857;28;20032;-78
2023/04/23 10:54:10;;;;;;;11.55;3.88;;;;;;;20.25;100.00;101597.22;5095800;28;20020;-78
2023/04/23 10:56:42;;;;;;;9.07;3.75;;;;;;;20.34;100.00;101565.84;5095638;28;20513;-77
2023/04/23 10:59:21;;;;;;;7.88;3.90;;;;;;;21.00;100.00;101596.50;5095711;28;20023;-78
2023/04/23 11:01:49;;;;;;;8.43;4.10;;;;;;;20.46;100.00;101576.47;5096044;28;20061;-78
2023/04/23 11:04:25;;;;;;;7.53;3.70;;;;;;;21.28;100.00;101630.59;5095718;28;20032;-77
2023/04/23 11:06:52;;;;;;;9.20;3.83;;;;;;;20.52;100.00;101565.06;5129973;27;20020;-78
2023/04/23 11:09:30;;;;;;;8.88;3.95;;;;;;;19.97;100.00;101535.53;5129557;27;20027;-77
2023/04/23 11:12:00;;;;;;;8.38;3.70;;;;;;;20.45;100.00;101527.47;5129201;27;20032;-76